createdAt,value
2018-06-20T00:01:42.642Z,21.38
2018-06-20T00:04:11.170Z,21.31
2018-06-20T00:06:40.089Z,21.35
2018-06-20T00:09:10.348Z,21.34
2018-06-20T00:11:39.519Z,21.40
2018-06-20T00:14:07.942Z,21.48
2018-06-20T00:16:36.473Z,21.44
2018-06-20T00:19:05.124Z,21.43
2018-06-20T00:21:33.534Z,21.39
2018-06-20T00:24:01.963Z,21.34
2018-06-20T00:26:30.370Z,21.26
2018-06-20T00:28:58.792Z,21.33
2018-06-20T00:31:27.243Z,21.27
2018-06-20T00:33:56.011Z,21.20
2018-06-20T00:36:24.470Z,21.22
2018-06-20T00:38:52.946Z,21.23
2018-06-20T00:41:21.522Z,21.25
2018-06-20T00:43:49.937Z,21.26
2018-06-20T00:46:18.365Z,21.27
2018-06-20T00:48:46.807Z,21.27
2018-06-20T00:51:15.446Z,21.20
2018-06-20T00:53:44.841Z,21.14
2018-06-20T00:56:19.903Z,21.15
2018-06-20T00:58:48.579Z,20.90
2018-06-20T01:01:17.007Z,20.97
2018-06-20T01:03:46.084Z,21.04
2018-06-20T01:06:14.643Z,21.09
2018-06-20T01:08:43.139Z,21.05
2018-06-20T01:11:12.162Z,21.05
2018-06-20T01:13:40.813Z,20.95
2018-06-20T01:16:09.267Z,21.06
2018-06-20T01:18:37.672Z,21.02
2018-06-20T01:21:06.053Z,21.03
2018-06-20T01:23:34.494Z,21.02
2018-06-20T01:26:03.100Z,21.04
2018-06-20T01:28:31.810Z,20.98
2018-06-20T01:31:00.498Z,21.00
2018-06-20T01:33:28.929Z,20.97
2018-06-20T01:35:57.383Z,20.92
2018-06-20T01:38:25.780Z,20.98
2018-06-20T01:40:54.218Z,20.92
2018-06-20T01:43:22.643Z,20.96
2018-06-20T01:45:51.080Z,20.91
2018-06-20T01:48:19.580Z,21.01
2018-06-20T01:50:48.019Z,21.00
2018-06-20T01:53:16.452Z,20.88
2018-06-20T01:55:44.949Z,20.86
2018-06-20T01:58:13.340Z,20.88
2018-06-20T02:00:41.775Z,20.94
2018-06-20T02:03:10.182Z,20.90
2018-06-20T02:05:38.695Z,20.92
2018-06-20T02:08:07.128Z,20.88
2018-06-20T02:10:35.539Z,20.81
2018-06-20T02:13:03.979Z,20.80
2018-06-20T02:15:32.403Z,20.79
2018-06-20T02:18:00.827Z,20.78
2018-06-20T02:20:29.279Z,20.79
2018-06-20T02:22:57.723Z,20.79
2018-06-20T02:25:26.147Z,20.85
2018-06-20T02:27:54.590Z,20.77
2018-06-20T02:30:23.051Z,20.72
2018-06-20T02:32:51.468Z,20.76
2018-06-20T02:35:19.928Z,20.69
2018-06-20T02:37:48.350Z,20.77
2018-06-20T02:40:16.764Z,20.69
2018-06-20T02:42:45.431Z,20.55
2018-06-20T02:45:13.854Z,20.65
2018-06-20T02:47:44.271Z,20.67
2018-06-20T02:50:14.003Z,20.71
2018-06-20T02:52:42.980Z,20.64
2018-06-20T02:55:11.355Z,20.66
2018-06-20T02:57:39.804Z,20.72
2018-06-20T03:00:08.259Z,21.89
2018-06-20T03:02:36.748Z,22.41
2018-06-20T03:05:05.613Z,22.29
2018-06-20T03:07:34.073Z,22.39
2018-06-20T03:10:02.703Z,22.18
2018-06-20T03:12:31.140Z,21.62
2018-06-20T03:14:59.593Z,22.17
2018-06-20T03:17:28.003Z,21.63
2018-06-20T03:19:56.425Z,21.60
2018-06-20T03:22:24.903Z,21.32
2018-06-20T03:24:53.352Z,22.26
2018-06-20T03:27:21.871Z,22.53
2018-06-20T03:29:50.303Z,22.12
2018-06-20T03:32:18.720Z,22.28
2018-06-20T03:34:47.200Z,22.54
2018-06-20T03:37:15.657Z,22.71
2018-06-20T03:42:11.551Z,22.26
2018-06-20T03:44:39.955Z,21.26
2018-06-20T03:47:08.427Z,21.03
2018-06-20T03:49:36.884Z,20.84
2018-06-20T03:52:06.368Z,20.87
2018-06-20T03:54:34.800Z,20.96
2018-06-20T03:57:03.251Z,20.95
2018-06-20T03:59:32.032Z,20.87
2018-06-20T04:02:00.644Z,20.77
2018-06-20T04:04:29.059Z,21.01
2018-06-20T04:06:57.517Z,20.96
2018-06-20T04:09:25.912Z,20.84
2018-06-20T04:11:54.388Z,20.93
2018-06-20T04:14:22.810Z,21.04
2018-06-20T04:16:52.017Z,21.00
2018-06-20T04:19:20.459Z,20.97
2018-06-20T04:21:49.071Z,20.93
2018-06-20T04:24:17.521Z,20.91
2018-06-20T04:26:46.028Z,21.00
2018-06-20T04:29:14.884Z,20.99
2018-06-20T04:31:43.317Z,21.09
2018-06-20T04:34:11.960Z,21.15
2018-06-20T04:36:41.240Z,21.08
2018-06-20T04:39:11.157Z,21.13
2018-06-20T04:41:39.610Z,21.19
2018-06-20T04:44:09.099Z,21.25
2018-06-20T04:46:37.714Z,21.38
2018-06-20T04:49:06.192Z,21.47
2018-06-20T04:51:34.611Z,21.49
2018-06-20T04:54:03.063Z,21.36
2018-06-20T04:56:31.544Z,21.77
2018-06-20T04:59:00.027Z,22.04
2018-06-20T05:01:28.576Z,22.31
2018-06-20T05:03:56.999Z,22.24
2018-06-20T05:06:25.660Z,21.97
2018-06-20T05:08:54.096Z,22.15
2018-06-20T05:11:22.771Z,21.93
2018-06-20T05:13:51.204Z,21.65
2018-06-20T05:16:19.820Z,21.89
2018-06-20T05:18:48.272Z,21.99
2018-06-20T05:21:16.700Z,22.18
2018-06-20T05:23:45.127Z,22.13
2018-06-20T05:26:13.574Z,21.99
2018-06-20T05:28:42.040Z,22.29
2018-06-20T05:31:10.821Z,22.54
2018-06-20T05:33:39.224Z,22.04
2018-06-20T05:36:07.687Z,22.04
2018-06-20T05:38:36.120Z,22.39
2018-06-20T05:43:32.290Z,22.22
2018-06-20T05:46:00.981Z,22.46
2018-06-20T05:48:29.740Z,22.68
2018-06-20T05:50:58.146Z,22.64
2018-06-20T05:53:26.627Z,22.32
2018-06-20T05:55:55.150Z,22.55
2018-06-20T05:58:23.639Z,22.81
2018-06-20T06:00:52.076Z,22.65
2018-06-20T06:03:20.608Z,22.77
2018-06-20T06:06:01.765Z,22.74
2018-06-20T06:08:30.171Z,22.72
2018-06-20T06:10:58.600Z,22.65
2018-06-20T06:13:27.055Z,22.75
2018-06-20T06:15:55.487Z,22.84
2018-06-20T06:18:24.575Z,23.11
2018-06-20T06:20:52.999Z,23.03
2018-06-20T06:23:21.477Z,22.97
2018-06-20T06:25:50.135Z,23.19
2018-06-20T06:28:18.588Z,23.28
2018-06-20T06:30:46.993Z,23.34
2018-06-20T06:33:15.417Z,23.33
2018-06-20T06:35:43.831Z,23.36
2018-06-20T06:38:12.264Z,24.32
2018-06-20T06:40:40.817Z,23.70
2018-06-20T06:43:09.188Z,23.90
2018-06-20T06:45:37.600Z,24.31
2018-06-20T06:48:06.094Z,24.26
2018-06-20T06:50:34.857Z,24.36
2018-06-20T06:53:03.338Z,24.36
2018-06-20T06:55:31.779Z,24.33
2018-06-20T06:58:00.913Z,24.30
2018-06-20T07:00:29.837Z,24.65
2018-06-20T07:02:58.271Z,24.53
2018-06-20T07:05:26.733Z,24.89
2018-06-20T07:07:55.167Z,24.50
2018-06-20T07:10:23.587Z,24.79
2018-06-20T07:12:52.008Z,25.08
2018-06-20T07:15:20.890Z,25.29
2018-06-20T07:17:49.305Z,24.94
2018-06-20T07:20:17.740Z,24.88
2018-06-20T07:22:46.180Z,25.15
2018-06-20T07:25:14.642Z,25.29
2018-06-20T07:27:43.158Z,25.24
2018-06-20T07:30:11.567Z,25.31
2018-06-20T07:32:39.987Z,24.87
2018-06-20T07:35:08.397Z,24.79
2018-06-20T07:37:36.852Z,25.46
2018-06-20T07:40:05.928Z,25.80
2018-06-20T07:42:35.037Z,25.75
2018-06-20T07:45:03.553Z,25.76
2018-06-20T07:47:31.969Z,25.39
2018-06-20T07:50:00.407Z,26.32
2018-06-20T07:52:28.878Z,26.12
2018-06-20T07:54:57.364Z,25.99
2018-06-20T07:57:25.809Z,26.02
2018-06-20T07:59:59.644Z,25.81
2018-06-20T08:02:44.546Z,26.52
2018-06-20T08:05:18.466Z,26.08
2018-06-20T08:07:52.183Z,26.64
2018-06-20T08:10:25.896Z,26.61
2018-06-20T08:12:59.431Z,26.58
2018-06-20T08:15:32.944Z,26.97
2018-06-20T08:18:06.552Z,26.56
2018-06-20T08:20:35.102Z,27.12
2018-06-20T08:23:03.535Z,26.82
2018-06-20T08:25:32.089Z,27.46
2018-06-20T08:28:00.539Z,27.55
2018-06-20T08:30:29.161Z,27.22
2018-06-20T08:32:57.622Z,26.78
2018-06-20T08:35:26.028Z,26.83
2018-06-20T08:37:54.479Z,26.71
2018-06-20T08:40:22.893Z,27.25
2018-06-20T08:42:51.675Z,27.96
2018-06-20T08:45:20.092Z,27.36
2018-06-20T08:47:48.503Z,26.48
2018-06-20T08:50:16.916Z,26.67
2018-06-20T08:52:45.324Z,26.86
2018-06-20T08:55:14.065Z,26.82
2018-06-20T08:57:43.441Z,26.93
2018-06-20T09:00:12.197Z,27.84
2018-06-20T09:02:40.620Z,28.36
2018-06-20T09:05:14.230Z,28.79
2018-06-20T09:07:47.823Z,28.66
2018-06-20T09:10:21.598Z,28.57
2018-06-20T09:12:55.236Z,28.17
2018-06-20T09:15:28.993Z,28.51
2018-06-20T09:18:02.623Z,28.46
2018-06-20T09:20:31.135Z,28.21
2018-06-20T09:22:59.548Z,28.32
2018-06-20T09:25:28.272Z,28.40
2018-06-20T09:27:56.714Z,28.39
2018-06-20T09:30:25.150Z,28.43
2018-06-20T09:32:53.579Z,28.47
2018-06-20T09:35:22.028Z,28.66
2018-06-20T09:37:50.447Z,28.14
2018-06-20T09:40:18.884Z,28.31
2018-06-20T09:42:47.299Z,28.44
2018-06-20T09:45:15.692Z,28.27
2018-06-20T09:47:44.341Z,28.36
2018-06-20T09:50:18.000Z,28.92
2018-06-20T09:52:46.458Z,28.41
2018-06-20T09:55:14.983Z,28.12
2018-06-20T09:57:43.414Z,27.80
2018-06-20T10:00:17.072Z,27.29
2018-06-20T10:02:50.705Z,27.90
2018-06-20T10:05:24.421Z,28.51
2018-06-20T10:10:03.700Z,28.77
2018-06-20T10:12:37.151Z,29.27
2018-06-20T10:15:05.542Z,29.06
2018-06-20T10:17:33.957Z,29.39
2018-06-20T10:20:02.423Z,29.32
2018-06-20T10:22:30.859Z,29.90
2018-06-20T10:24:59.297Z,28.57
2018-06-20T10:27:27.958Z,29.39
2018-06-20T10:29:56.636Z,29.00
2018-06-20T10:32:55.766Z,29.64
2018-06-20T10:35:24.652Z,29.34
2018-06-20T10:37:53.080Z,28.91
2018-06-20T10:40:21.511Z,29.21
2018-06-20T10:42:50.166Z,29.01
2018-06-20T10:45:23.917Z,29.66
2018-06-20T10:47:53.268Z,29.62
2018-06-20T10:50:21.685Z,29.05
2018-06-20T10:52:50.133Z,29.70
2018-06-20T10:55:18.849Z,29.81
2018-06-20T10:57:52.618Z,29.99
2018-06-20T11:00:26.182Z,30.31
2018-06-20T11:02:59.949Z,30.49
2018-06-20T11:05:33.543Z,31.86
2018-06-20T11:08:07.152Z,30.18
2018-06-20T11:10:40.896Z,31.16
2018-06-20T11:13:14.054Z,30.70
2018-06-20T11:15:42.790Z,29.95
2018-06-20T11:18:11.233Z,31.00
2018-06-20T11:20:44.870Z,31.58
2018-06-20T11:23:13.313Z,31.60
2018-06-20T11:25:41.716Z,30.58
2018-06-20T11:28:15.028Z,30.88
2018-06-20T11:30:44.898Z,30.17
2018-06-20T11:33:13.971Z,30.24
2018-06-20T11:35:43.043Z,32.15
2018-06-20T11:38:11.465Z,31.80
2018-06-20T11:40:39.908Z,32.22
2018-06-20T11:43:08.355Z,31.87
2018-06-20T11:45:41.999Z,31.63
2018-06-20T11:48:10.459Z,31.60
2018-06-20T11:50:39.136Z,32.05
2018-06-20T11:53:09.635Z,31.54
2018-06-20T11:55:41.803Z,33.27
2018-06-20T11:58:15.466Z,32.35
2018-06-20T12:00:49.207Z,31.21
2018-06-20T12:03:22.917Z,32.03
2018-06-20T12:05:56.534Z,32.10
2018-06-20T12:08:30.345Z,31.91
2018-06-20T12:11:03.944Z,32.74
2018-06-20T12:13:37.745Z,32.36
2018-06-20T12:16:11.343Z,33.12
2018-06-20T12:18:45.068Z,32.11
2018-06-20T12:21:18.810Z,32.81
2018-06-20T12:23:52.747Z,32.26
2018-06-20T12:26:26.367Z,33.24
2018-06-20T12:28:59.895Z,32.17
2018-06-20T12:31:33.607Z,34.73
2018-06-20T12:34:07.363Z,33.71
2018-06-20T12:36:40.895Z,34.49
2018-06-20T12:39:08.449Z,34.70
2018-06-20T12:41:42.243Z,34.88
2018-06-20T12:44:16.681Z,33.25
2018-06-20T12:46:54.496Z,33.04
2018-06-20T12:49:26.675Z,33.92
2018-06-20T12:51:55.083Z,34.94
2018-06-20T12:54:23.564Z,33.55
2018-06-20T12:56:52.097Z,36.68
2018-06-20T12:59:20.495Z,33.55
2018-06-20T13:01:48.919Z,33.83
2018-06-20T13:04:17.450Z,34.52
2018-06-20T13:06:45.879Z,36.97
2018-06-20T13:09:14.305Z,36.20
2018-06-20T13:11:43.125Z,34.38
2018-06-20T13:14:12.632Z,35.52
2018-06-20T13:16:41.726Z,34.18
2018-06-20T13:19:10.216Z,36.39
2018-06-20T13:21:38.623Z,35.66
2018-06-20T13:24:07.007Z,37.44
2018-06-20T13:26:35.629Z,34.84
2018-06-20T13:29:04.042Z,35.87
2018-06-20T13:31:37.796Z,36.06
2018-06-20T13:34:11.321Z,37.65
2018-06-20T13:36:44.875Z,35.68
2018-06-20T13:39:18.545Z,35.55
2018-06-20T13:41:52.146Z,36.33
2018-06-20T13:44:25.306Z,37.15
2018-06-20T13:46:59.358Z,36.73
2018-06-20T13:49:27.988Z,37.06
2018-06-20T13:51:56.432Z,36.82
2018-06-20T13:54:25.011Z,35.90
2018-06-20T13:56:54.218Z,36.34
2018-06-20T13:59:23.186Z,35.76
2018-06-20T14:01:51.728Z,35.48
2018-06-20T14:04:20.140Z,36.16
2018-06-20T14:06:48.582Z,35.42
2018-06-20T14:09:16.999Z,36.13
2018-06-20T14:11:45.423Z,34.96
2018-06-20T14:14:13.867Z,35.67
2018-06-20T14:16:42.335Z,37.05
2018-06-20T14:19:10.723Z,37.50
2018-06-20T14:21:40.615Z,36.55
2018-06-20T14:24:10.444Z,36.25
2018-06-20T14:26:40.066Z,36.93
2018-06-20T14:29:09.591Z,37.73
2018-06-20T14:31:43.339Z,37.63
2018-06-20T14:34:17.118Z,38.30
2018-06-20T14:36:50.698Z,37.88
2018-06-20T14:39:24.359Z,36.63
2018-06-20T14:41:58.035Z,38.23
2018-06-20T14:44:26.728Z,39.40
2018-06-20T14:46:55.146Z,39.82
2018-06-20T14:49:23.576Z,38.80
2018-06-20T14:51:52.006Z,38.95
2018-06-20T14:54:20.434Z,36.09
2018-06-20T14:56:48.835Z,36.43
2018-06-20T14:59:17.240Z,38.88
2018-06-20T15:01:45.683Z,38.11
2018-06-20T15:04:14.118Z,39.27
2018-06-20T15:06:42.803Z,39.38
2018-06-20T15:09:11.223Z,39.25
2018-06-20T15:11:39.877Z,37.37
2018-06-20T15:14:08.318Z,37.84
2018-06-20T15:16:42.050Z,36.96
2018-06-20T15:19:10.696Z,37.74
2018-06-20T15:21:39.113Z,39.59
2018-06-20T15:24:07.535Z,37.91
2018-06-20T15:26:41.320Z,39.02
2018-06-20T15:29:14.776Z,40.16
2018-06-20T15:31:48.374Z,40.47
2018-06-20T15:34:22.030Z,40.02
2018-06-20T15:36:55.889Z,40.23
2018-06-20T15:39:24.363Z,39.29
2018-06-20T15:41:52.804Z,38.70
2018-06-20T15:44:21.358Z,40.58
2018-06-20T15:46:49.809Z,40.01
2018-06-20T15:49:18.207Z,40.70
2018-06-20T15:51:46.810Z,40.21
2018-06-20T15:54:15.562Z,40.70
2018-06-20T15:57:46.604Z,41.23
2018-06-20T16:00:15.003Z,37.96
2018-06-20T16:02:43.405Z,39.88
2018-06-20T16:05:11.848Z,40.17
2018-06-20T16:07:40.301Z,39.29
2018-06-20T16:10:09.985Z,40.77
2018-06-20T16:12:38.696Z,37.96
2018-06-20T16:15:07.187Z,39.04
2018-06-20T16:17:35.776Z,40.03
2018-06-20T16:20:09.497Z,39.73
2018-06-20T16:22:43.475Z,41.51
2018-06-20T16:25:17.112Z,41.76
2018-06-20T16:27:50.719Z,40.91
2018-06-20T16:30:30.809Z,39.12
2018-06-20T16:32:59.395Z,40.80
2018-06-20T16:35:27.847Z,40.07
2018-06-20T16:37:56.814Z,41.17
2018-06-20T16:40:25.570Z,40.94
2018-06-20T16:42:54.010Z,40.98
2018-06-20T16:45:22.456Z,42.13
2018-06-20T16:47:50.958Z,42.82
2018-06-20T16:50:19.423Z,41.82
2018-06-20T16:52:47.868Z,40.78
2018-06-20T16:55:16.548Z,41.03
2018-06-20T16:57:45.239Z,40.19
2018-06-20T17:00:13.763Z,39.67
2018-06-20T17:02:43.416Z,39.71
2018-06-20T17:05:12.444Z,38.62
2018-06-20T17:07:41.135Z,38.35
2018-06-20T17:10:09.596Z,40.69
2018-06-20T17:12:43.445Z,40.18
2018-06-20T17:15:16.947Z,40.99
2018-06-20T17:19:53.245Z,41.93
2018-06-20T17:22:27.169Z,39.05
2018-06-20T17:25:01.018Z,39.71
2018-06-20T17:27:29.824Z,40.60
2018-06-20T17:29:58.244Z,40.65
2018-06-20T17:32:26.868Z,38.90
2018-06-20T17:34:56.112Z,38.71
2018-06-20T17:37:24.570Z,38.45
2018-06-20T17:39:53.006Z,37.96
2018-06-20T17:42:21.472Z,38.43
2018-06-20T17:44:50.082Z,38.32
2018-06-20T17:47:18.715Z,37.51
2018-06-20T17:49:47.306Z,37.67
2018-06-20T17:52:15.761Z,37.85
2018-06-20T17:54:44.206Z,37.60
2018-06-20T17:57:12.666Z,37.33
2018-06-20T17:59:41.163Z,38.55
2018-06-20T18:02:10.016Z,37.69
2018-06-20T18:04:43.481Z,37.08
2018-06-20T18:07:17.225Z,36.10
2018-06-20T18:10:05.228Z,36.37
2018-06-20T18:12:38.866Z,35.87
2018-06-20T18:15:13.131Z,36.78
2018-06-20T18:17:42.220Z,36.15
2018-06-20T18:20:10.639Z,34.70
2018-06-20T18:22:39.047Z,34.80
2018-06-20T18:25:07.753Z,34.56
2018-06-20T18:27:36.435Z,34.14
2018-06-20T18:30:04.926Z,33.97
2018-06-20T18:32:33.452Z,33.74
2018-06-20T18:35:02.162Z,33.24
2018-06-20T18:37:30.863Z,32.81
2018-06-20T18:40:03.234Z,32.65
2018-06-20T18:42:32.160Z,32.31
2018-06-20T18:45:00.582Z,31.26
2018-06-20T18:47:34.260Z,30.42
2018-06-20T18:50:02.741Z,30.39
2018-06-20T18:52:31.197Z,29.58
2018-06-20T18:55:00.015Z,29.26
2018-06-20T18:57:33.907Z,29.07
2018-06-20T19:00:07.840Z,28.90
2018-06-20T19:02:41.333Z,28.80
2018-06-20T19:05:15.187Z,28.73
2018-06-20T19:07:49.005Z,28.41
2018-06-20T19:10:17.931Z,28.16
2018-06-20T19:12:46.360Z,28.28
2018-06-20T19:15:14.793Z,28.21
2018-06-20T19:17:43.218Z,27.77
2018-06-20T19:20:11.771Z,27.36
2018-06-20T19:22:40.254Z,27.60
2018-06-20T19:25:08.640Z,27.41
2018-06-20T19:27:37.070Z,27.32
2018-06-20T19:30:05.511Z,26.97
2018-06-20T19:32:34.141Z,26.58
2018-06-20T19:35:02.667Z,26.42
2018-06-20T19:37:31.117Z,26.38
2018-06-20T19:39:59.695Z,26.26
2018-06-20T19:42:28.142Z,26.20
2018-06-20T19:44:56.624Z,25.77
2018-06-20T19:47:25.091Z,25.98
2018-06-20T19:49:53.487Z,25.90
2018-06-20T19:52:22.074Z,25.80
2018-06-20T19:54:50.644Z,25.81
2018-06-20T19:57:19.099Z,25.83
2018-06-20T19:59:47.785Z,25.64
2018-06-20T20:02:16.204Z,25.51
2018-06-20T20:04:44.635Z,25.32
2018-06-20T20:07:13.041Z,25.39
2018-06-20T20:09:41.527Z,25.35
2018-06-20T20:12:09.976Z,25.32
2018-06-20T20:14:38.420Z,25.16
2018-06-20T20:17:07.723Z,25.17
2018-06-20T20:19:36.296Z,25.20
2018-06-20T20:22:04.736Z,25.06
2018-06-20T20:24:33.359Z,25.02
2018-06-20T20:27:01.792Z,25.02
2018-06-20T20:29:30.208Z,24.88
2018-06-20T20:31:58.796Z,24.80
2018-06-20T20:34:27.234Z,24.75
2018-06-20T20:36:55.690Z,24.78
2018-06-20T20:39:24.132Z,24.80
2018-06-20T20:41:52.670Z,24.65
2018-06-20T20:44:21.146Z,24.89
2018-06-20T20:46:49.592Z,24.85
2018-06-20T20:49:18.071Z,24.70
2018-06-20T20:51:46.464Z,24.60
2018-06-20T20:54:14.853Z,24.36
2018-06-20T20:56:43.301Z,24.28
2018-06-20T20:59:11.933Z,24.36
2018-06-20T21:01:40.336Z,24.18
2018-06-20T21:04:08.778Z,24.16
2018-06-20T21:06:37.255Z,23.96
2018-06-20T21:09:07.746Z,24.01
2018-06-20T21:11:36.135Z,24.03
2018-06-20T21:14:04.567Z,23.98
2018-06-20T21:16:33.073Z,23.99
2018-06-20T21:19:01.522Z,23.90
2018-06-20T21:21:30.700Z,23.79
2018-06-20T21:23:59.686Z,23.36
2018-06-20T21:26:28.114Z,23.74
2018-06-20T21:28:56.541Z,23.49
2018-06-20T21:31:24.984Z,23.55
2018-06-20T21:33:53.448Z,23.66
2018-06-20T21:39:52.985Z,23.44
2018-06-20T21:42:21.430Z,23.51
2018-06-20T21:44:50.102Z,23.39
2018-06-20T21:47:19.144Z,23.34
2018-06-20T21:49:47.553Z,23.38
2018-06-20T21:52:15.988Z,23.26
2018-06-20T21:54:44.380Z,23.14
2018-06-20T21:57:12.855Z,23.15
2018-06-20T21:59:41.247Z,23.03
2018-06-20T22:02:09.996Z,23.05
2018-06-20T22:04:38.411Z,22.96
2018-06-20T22:07:06.799Z,22.92
2018-06-20T22:09:35.243Z,22.97
2018-06-20T22:12:03.659Z,22.67
2018-06-20T22:14:32.097Z,22.74
2018-06-20T22:17:00.489Z,22.70
2018-06-20T22:19:28.906Z,22.65
2018-06-20T22:21:57.344Z,22.49
2018-06-20T22:24:25.776Z,22.36
2018-06-20T22:26:54.195Z,22.52
2018-06-20T22:29:22.616Z,22.60
2018-06-20T22:31:51.015Z,22.59
2018-06-20T22:34:19.463Z,22.43
2018-06-20T22:36:48.188Z,22.34
2018-06-20T22:39:16.956Z,22.26
2018-06-20T22:41:45.399Z,22.33
2018-06-20T22:44:13.841Z,22.13
2018-06-20T22:46:42.419Z,21.96
2018-06-20T22:49:10.816Z,22.12
2018-06-20T22:51:39.279Z,22.13
2018-06-20T22:54:07.679Z,22.13
2018-06-20T22:56:36.139Z,21.81
2018-06-20T22:59:04.576Z,21.74
2018-06-20T23:01:33.288Z,21.77
2018-06-20T23:04:01.736Z,21.77
2018-06-20T23:06:30.751Z,21.70
2018-06-20T23:08:59.335Z,21.72
2018-06-20T23:11:27.816Z,21.64
2018-06-20T23:13:56.257Z,21.68
2018-06-20T23:16:24.701Z,21.65
2018-06-20T23:18:53.122Z,21.58
2018-06-20T23:21:21.519Z,21.47
2018-06-20T23:23:50.058Z,21.43
2018-06-20T23:26:18.462Z,21.31
2018-06-20T23:28:46.916Z,21.21
2018-06-20T23:31:15.694Z,21.34
2018-06-20T23:33:44.200Z,21.16
2018-06-20T23:36:12.652Z,21.02
2018-06-20T23:38:41.167Z,21.07
2018-06-20T23:41:09.599Z,21.00
2018-06-20T23:43:38.232Z,21.04
2018-06-20T23:46:06.693Z,21.06
2018-06-20T23:48:35.859Z,20.94
2018-06-20T23:51:04.258Z,20.89
2018-06-20T23:53:32.688Z,20.76
2018-06-20T23:56:01.131Z,20.79
2018-06-20T23:58:29.810Z,20.84
